createdAt,value
2022-12-17T00:01:08.108Z,138.17
2022-12-17T00:03:53.681Z,152.43
2022-12-17T00:06:44.277Z,147.27
2022-12-17T00:09:29.837Z,136.73
2022-12-17T00:12:15.550Z,155.03
2022-12-17T00:15:01.044Z,130.33
2022-12-17T00:17:46.789Z,126.10
2022-12-17T00:20:32.268Z,126.63
2022-12-17T00:23:19.986Z,114.93
2022-12-17T00:26:09.380Z,109.83
2022-12-17T00:28:55.371Z,99.83
2022-12-17T00:31:41.740Z,105.97
2022-12-17T00:34:27.399Z,89.50
2022-12-17T00:37:12.940Z,106.00
2022-12-17T00:40:00.011Z,89.00
2022-12-17T00:43:00.500Z,96.07
2022-12-17T00:45:46.078Z,93.73
2022-12-17T00:48:31.343Z,86.60
2022-12-17T00:51:16.781Z,98.37
2022-12-17T00:54:02.356Z,94.77
2022-12-17T00:56:49.404Z,93.13
2022-12-17T00:59:34.966Z,97.17
2022-12-17T01:02:20.821Z,100.30
2022-12-17T01:05:06.226Z,112.10
2022-12-17T01:07:52.567Z,99.97
2022-12-17T01:10:38.088Z,118.23
2022-12-17T01:13:25.165Z,120.13
2022-12-17T01:16:10.563Z,202.83
2022-12-17T01:18:56.297Z,139.67
2022-12-17T01:21:42.072Z,172.33
2022-12-17T01:24:27.850Z,119.23
2022-12-17T01:27:13.333Z,134.70
2022-12-17T01:30:00.265Z,141.33
2022-12-17T01:32:45.701Z,141.50
2022-12-17T01:35:31.214Z,134.67
2022-12-17T01:38:16.558Z,109.87
2022-12-17T01:41:02.401Z,120.13
2022-12-17T01:43:51.868Z,210.77
2022-12-17T01:46:40.130Z,105.50
2022-12-17T01:49:28.047Z,102.73
2022-12-17T01:52:14.205Z,108.63
2022-12-17T01:55:00.122Z,95.90
2022-12-17T01:57:45.800Z,134.10
2022-12-17T02:00:32.984Z,116.63
2022-12-17T02:03:20.317Z,107.47
2022-12-17T02:06:18.466Z,222.43
2022-12-17T02:09:11.715Z,92.17
2022-12-17T02:12:09.696Z,84.23
2022-12-17T02:15:03.111Z,244.83
2022-12-17T02:17:54.906Z,185.73
2022-12-17T02:20:48.711Z,97.50
2022-12-17T02:23:52.900Z,229.77
2022-12-17T02:26:49.178Z,90.87
2022-12-17T02:29:35.260Z,102.50
2022-12-17T02:32:21.687Z,95.00
2022-12-17T02:35:07.628Z,97.63
2022-12-17T02:37:52.900Z,157.97
2022-12-17T02:40:40.977Z,116.00
2022-12-17T02:43:30.223Z,88.03
2022-12-17T02:46:15.772Z,137.33
2022-12-17T02:49:01.772Z,138.03
2022-12-17T02:51:47.651Z,89.33
2022-12-17T02:54:32.996Z,117.20
2022-12-17T02:57:30.569Z,133.40
2022-12-17T03:00:17.476Z,91.07
2022-12-17T03:03:02.977Z,121.83
2022-12-17T03:05:48.351Z,190.23
2022-12-17T03:08:34.443Z,102.70
2022-12-17T03:11:19.869Z,70.07
2022-12-17T03:14:05.250Z,291.07
2022-12-17T03:17:07.142Z,120.63
2022-12-17T03:19:52.608Z,185.87
2022-12-17T03:22:37.908Z,67.43
2022-12-17T03:25:24.023Z,70.60
2022-12-17T03:28:09.485Z,71.27
2022-12-17T03:30:55.142Z,73.43
2022-12-17T03:33:42.242Z,99.03
2022-12-17T03:36:27.440Z,63.07
2022-12-17T03:39:13.046Z,146.10
2022-12-17T03:41:58.437Z,81.17
2022-12-17T03:44:44.055Z,181.27
2022-12-17T03:47:29.503Z,67.13
2022-12-17T03:50:16.408Z,259.87
2022-12-17T03:53:02.050Z,112.70
2022-12-17T03:55:47.575Z,94.17
2022-12-17T03:58:33.670Z,61.50
2022-12-17T04:01:19.581Z,59.80
2022-12-17T04:04:05.165Z,89.27
2022-12-17T04:06:52.352Z,77.73
2022-12-17T04:09:37.707Z,103.50
2022-12-17T04:12:23.296Z,62.83
2022-12-17T04:15:08.771Z,159.20
2022-12-17T04:17:54.303Z,64.90
2022-12-17T04:20:54.327Z,81.57
2022-12-17T04:23:41.123Z,71.17
2022-12-17T04:26:26.440Z,62.33
2022-12-17T04:29:11.867Z,269.07
2022-12-17T04:31:57.188Z,70.67
2022-12-17T04:34:42.677Z,127.30
2022-12-17T04:37:28.162Z,82.63
2022-12-17T04:40:15.034Z,99.93
2022-12-17T04:43:00.559Z,72.57
2022-12-17T04:45:46.389Z,80.03
2022-12-17T04:48:32.069Z,73.83
2022-12-17T04:51:17.429Z,75.57
2022-12-17T04:54:02.969Z,76.63
2022-12-17T04:56:50.004Z,81.87
2022-12-17T04:59:35.351Z,87.13
2022-12-17T05:02:20.750Z,81.20
2022-12-17T05:05:06.502Z,87.03
2022-12-17T05:07:52.102Z,94.30
2022-12-17T05:10:37.625Z,75.23
2022-12-17T05:13:24.597Z,78.30
2022-12-17T05:16:14.683Z,99.93
2022-12-17T05:19:00.344Z,91.90
2022-12-17T05:21:45.747Z,71.57
2022-12-17T05:24:31.123Z,113.93
2022-12-17T05:27:16.732Z,82.90
2022-12-17T05:30:03.720Z,91.57
2022-12-17T05:32:49.117Z,87.27
2022-12-17T05:35:34.907Z,84.80
2022-12-17T05:38:22.775Z,77.33
2022-12-17T05:41:08.671Z,73.77
2022-12-17T05:43:54.129Z,64.10
2022-12-17T05:46:41.033Z,62.07
2022-12-17T05:49:27.116Z,58.93
2022-12-17T05:52:12.342Z,63.17
2022-12-17T05:55:00.042Z,57.80
2022-12-17T05:57:46.010Z,63.20
2022-12-17T06:00:32.449Z,56.73
2022-12-17T06:03:21.606Z,67.37
2022-12-17T06:06:12.868Z,54.17
2022-12-17T06:08:58.945Z,60.50
2022-12-17T06:11:44.545Z,66.73
2022-12-17T06:14:30.204Z,74.93
2022-12-17T06:17:15.783Z,71.20
2022-12-17T06:20:08.040Z,77.30
2022-12-17T06:22:52.614Z,72.67
2022-12-17T06:25:37.898Z,62.07
2022-12-17T06:28:23.913Z,70.93
2022-12-17T06:31:10.047Z,61.50
2022-12-17T06:33:56.448Z,64.20
2022-12-17T06:36:45.994Z,66.03
2022-12-17T06:39:31.585Z,65.57
2022-12-17T06:42:17.130Z,63.50
2022-12-17T06:45:03.073Z,60.37
2022-12-17T06:47:48.568Z,58.50
2022-12-17T06:50:34.139Z,61.30
2022-12-17T06:53:23.437Z,56.50
2022-12-17T06:56:09.572Z,61.57
2022-12-17T06:58:55.048Z,66.70
2022-12-17T07:01:40.733Z,68.53
2022-12-17T07:04:26.530Z,54.67
2022-12-17T07:07:11.829Z,54.50
2022-12-17T07:10:14.077Z,60.40
2022-12-17T07:13:00.940Z,58.93
2022-12-17T07:15:46.504Z,54.13
2022-12-17T07:18:32.039Z,49.93
2022-12-17T07:21:17.680Z,57.37
2022-12-17T07:24:03.830Z,68.17
2022-12-17T07:26:51.606Z,62.17
2022-12-17T07:29:37.075Z,58.33
2022-12-17T07:32:23.314Z,53.07
2022-12-17T07:35:09.596Z,66.90
2022-12-17T07:37:55.232Z,56.10
2022-12-17T07:40:40.923Z,77.97
2022-12-17T07:43:30.964Z,69.83
2022-12-17T07:46:16.780Z,57.30
2022-12-17T07:49:03.178Z,66.13
2022-12-17T07:51:48.769Z,80.77
2022-12-17T07:54:34.187Z,64.30
2022-12-17T07:57:19.829Z,60.47
2022-12-17T08:00:07.023Z,62.90
2022-12-17T08:02:52.683Z,56.10
2022-12-17T08:05:38.299Z,66.37
2022-12-17T08:08:26.991Z,78.10
2022-12-17T08:11:12.486Z,57.33
2022-12-17T08:13:58.715Z,50.40
2022-12-17T08:16:45.756Z,56.63
2022-12-17T08:19:31.560Z,45.47
2022-12-17T08:22:17.065Z,40.90
2022-12-17T08:25:03.047Z,47.93
2022-12-17T08:27:49.472Z,53.77
2022-12-17T08:30:35.004Z,53.93
2022-12-17T08:33:25.508Z,46.23
2022-12-17T08:36:11.811Z,42.17
2022-12-17T08:38:57.257Z,44.90
2022-12-17T08:41:42.623Z,44.00
2022-12-17T08:44:28.183Z,45.00
2022-12-17T08:47:14.261Z,39.90
2022-12-17T08:50:01.354Z,46.83
2022-12-17T08:52:46.970Z,45.40
2022-12-17T08:55:32.406Z,43.83
2022-12-17T08:58:18.217Z,41.83
2022-12-17T09:01:04.370Z,41.60
2022-12-17T09:03:55.136Z,39.60
2022-12-17T09:06:42.161Z,38.77
2022-12-17T09:09:27.590Z,39.47
2022-12-17T09:12:13.026Z,34.47
2022-12-17T09:14:58.715Z,40.13
2022-12-17T09:17:44.202Z,37.80
2022-12-17T09:20:29.765Z,40.53
2022-12-17T09:23:17.070Z,46.10
2022-12-17T09:26:02.651Z,50.50
2022-12-17T09:28:48.177Z,54.10
2022-12-17T09:31:37.248Z,55.97
2022-12-17T09:34:23.229Z,58.93
2022-12-17T09:37:08.994Z,51.03
2022-12-17T09:39:56.654Z,56.90
2022-12-17T09:42:52.526Z,53.13
2022-12-17T09:45:46.419Z,47.93
2022-12-17T09:48:40.455Z,48.63
2022-12-17T09:51:39.693Z,42.90
2022-12-17T09:54:34.436Z,35.60
2022-12-17T09:57:21.815Z,40.23
2022-12-17T10:00:07.299Z,41.70
2022-12-17T10:02:53.502Z,37.77
2022-12-17T10:05:44.458Z,37.60
2022-12-17T10:08:33.590Z,46.10
2022-12-17T10:11:34.413Z,40.83
2022-12-17T10:14:23.274Z,40.63
2022-12-17T10:17:12.013Z,34.63
2022-12-17T10:20:00.402Z,36.90
2022-12-17T10:22:46.313Z,33.57
2022-12-17T10:25:36.200Z,32.33
2022-12-17T10:28:25.236Z,37.10
2022-12-17T10:31:12.192Z,38.40
2022-12-17T10:33:59.456Z,36.70
2022-12-17T10:36:46.820Z,36.97
2022-12-17T10:39:35.277Z,34.20
2022-12-17T10:42:21.396Z,37.43
2022-12-17T10:45:06.887Z,34.60
2022-12-17T10:47:53.850Z,34.47
2022-12-17T10:50:41.537Z,34.80
2022-12-17T10:53:37.565Z,32.10
2022-12-17T10:56:24.158Z,33.57
2022-12-17T10:59:11.859Z,31.87
2022-12-17T11:01:58.890Z,37.97
2022-12-17T11:04:48.415Z,31.37
2022-12-17T11:07:37.868Z,30.33
2022-12-17T11:10:31.875Z,34.03
2022-12-17T11:13:21.609Z,30.97
2022-12-17T11:16:09.259Z,30.10
2022-12-17T11:19:03.780Z,30.13
2022-12-17T11:21:54.980Z,28.57
2022-12-17T11:24:46.392Z,35.17
2022-12-17T11:27:36.922Z,31.90
2022-12-17T11:30:31.099Z,38.23
2022-12-17T11:33:28.342Z,31.20
2022-12-17T11:36:24.274Z,32.73
2022-12-17T11:39:23.497Z,32.27
2022-12-17T11:42:18.245Z,28.10
2022-12-17T11:45:14.368Z,29.43
2022-12-17T11:48:07.316Z,31.37
2022-12-17T11:51:02.233Z,32.90
2022-12-17T11:54:05.366Z,28.87
2022-12-17T11:56:57.420Z,31.07
2022-12-17T11:59:52.891Z,32.43
2022-12-17T12:02:57.878Z,36.90
2022-12-17T12:05:56.729Z,36.23
2022-12-17T12:08:45.335Z,39.93
2022-12-17T12:11:44.631Z,34.67
2022-12-17T12:14:47.011Z,36.00
2022-12-17T12:17:50.116Z,34.90
2022-12-17T12:20:52.732Z,43.60
2022-12-17T12:23:49.848Z,41.40
2022-12-17T12:26:39.756Z,42.43
2022-12-17T12:29:38.731Z,38.97
2022-12-17T12:32:31.392Z,43.10
2022-12-17T12:35:20.390Z,36.73
2022-12-17T12:38:05.842Z,40.53
2022-12-17T12:40:57.340Z,35.43
2022-12-17T12:44:02.320Z,34.57
2022-12-17T12:46:56.282Z,33.67
2022-12-17T12:49:47.577Z,35.63
2022-12-17T12:52:38.553Z,32.93
2022-12-17T12:55:39.648Z,35.97
2022-12-17T12:58:43.000Z,32.50
2022-12-17T13:01:29.156Z,34.27
2022-12-17T13:04:21.805Z,37.50
2022-12-17T13:06:54.217Z,31.37
2022-12-17T13:09:47.895Z,31.73
2022-12-17T13:12:27.987Z,28.37
2022-12-17T13:15:03.906Z,35.13
2022-12-17T13:17:36.721Z,26.87
2022-12-17T13:20:25.382Z,31.70
2022-12-17T13:22:55.401Z,35.43
2022-12-17T13:25:24.644Z,30.57
2022-12-17T13:27:52.752Z,31.20
2022-12-17T13:30:25.006Z,31.40
2022-12-17T13:33:05.005Z,29.33
2022-12-17T13:35:42.807Z,29.33
2022-12-17T13:38:21.695Z,30.17
2022-12-17T13:41:09.350Z,34.27
2022-12-17T13:43:43.472Z,29.93
2022-12-17T13:46:20.650Z,31.03
2022-12-17T13:48:59.215Z,25.33
2022-12-17T13:51:30.536Z,26.67
2022-12-17T13:54:01.674Z,29.17
2022-12-17T13:56:33.030Z,32.57
2022-12-17T13:59:08.734Z,36.53
2022-12-17T14:01:46.666Z,36.27
2022-12-17T14:04:22.548Z,35.20
2022-12-17T14:06:53.075Z,35.77
2022-12-17T14:09:23.769Z,40.57
2022-12-17T14:12:09.634Z,43.83
2022-12-17T14:14:40.444Z,44.00
2022-12-17T14:17:17.910Z,81.97
2022-12-17T14:19:46.209Z,51.40
2022-12-17T14:22:20.850Z,46.90
2022-12-17T14:24:49.157Z,53.27
2022-12-17T14:27:26.057Z,52.53
2022-12-17T14:29:54.465Z,53.93
2022-12-17T14:32:27.295Z,54.37
2022-12-17T14:35:00.455Z,51.50
2022-12-17T14:37:31.868Z,94.97
2022-12-17T14:40:04.266Z,97.43
2022-12-17T14:42:38.431Z,77.60
2022-12-17T14:45:22.038Z,53.43
2022-12-17T14:47:55.559Z,57.43
2022-12-17T14:50:33.359Z,54.37
2022-12-17T14:53:07.440Z,59.47
2022-12-17T14:55:38.514Z,75.40
2022-12-17T14:58:25.001Z,86.67
2022-12-17T15:00:57.123Z,89.97
2022-12-17T15:03:28.276Z,83.67
2022-12-17T15:05:59.755Z,64.80
2022-12-17T15:08:32.789Z,60.20
2022-12-17T15:11:00.798Z,53.73
2022-12-17T15:13:28.969Z,55.67
2022-12-17T15:15:57.701Z,51.37
2022-12-17T15:18:26.076Z,47.77
2022-12-17T15:20:54.789Z,46.77
2022-12-17T15:23:24.338Z,52.03
2022-12-17T15:25:56.122Z,53.57
2022-12-17T15:28:28.380Z,48.50
2022-12-17T15:30:56.863Z,52.53
2022-12-17T15:33:25.306Z,62.53
2022-12-17T15:35:53.519Z,56.23
2022-12-17T15:38:21.625Z,61.90
2022-12-17T15:40:49.718Z,56.73
2022-12-17T15:43:18.275Z,58.53
2022-12-17T15:45:47.750Z,61.40
2022-12-17T15:48:17.968Z,63.17
2022-12-17T15:50:46.125Z,83.83
2022-12-17T15:53:14.204Z,86.80
2022-12-17T15:55:43.001Z,84.30
2022-12-17T15:58:11.773Z,65.60
2022-12-17T16:00:41.211Z,72.20
2022-12-17T16:03:09.528Z,67.67
2022-12-17T16:05:37.775Z,67.03
2022-12-17T16:08:06.214Z,76.87
2022-12-17T16:10:34.623Z,59.10
2022-12-17T16:13:02.700Z,56.50
2022-12-17T16:15:31.155Z,60.87
2022-12-17T16:18:01.542Z,56.40
2022-12-17T16:20:29.938Z,58.90
2022-12-17T16:22:58.210Z,50.23
2022-12-17T16:25:26.334Z,49.00
2022-12-17T16:27:54.574Z,83.87
2022-12-17T16:30:22.675Z,70.13
2022-12-17T16:32:50.981Z,55.23
2022-12-17T16:35:20.602Z,59.03
2022-12-17T16:37:48.735Z,69.30
2022-12-17T16:40:16.847Z,68.40
2022-12-17T16:42:44.869Z,69.63
2022-12-17T16:45:13.008Z,70.47
2022-12-17T16:47:41.135Z,74.47
2022-12-17T16:50:09.558Z,75.30
2022-12-17T16:52:39.186Z,69.13
2022-12-17T16:55:07.880Z,74.60
2022-12-17T16:57:35.992Z,82.67
2022-12-17T17:00:04.578Z,78.53
2022-12-17T17:02:34.054Z,88.60
2022-12-17T17:05:02.738Z,92.20
2022-12-17T17:07:31.095Z,87.93
2022-12-17T17:10:00.571Z,91.33
2022-12-17T17:12:29.519Z,88.17
2022-12-17T17:14:58.054Z,87.57
2022-12-17T17:17:55.640Z,85.37
2022-12-17T17:20:15.384Z,92.63
2022-12-17T17:22:44.084Z,88.10
2022-12-17T17:25:13.661Z,88.30
2022-12-17T17:27:41.738Z,88.27
2022-12-17T17:30:11.296Z,80.47
2022-12-17T17:32:39.368Z,76.93
2022-12-17T17:35:08.672Z,84.87
2022-12-17T17:37:36.986Z,82.47
2022-12-17T17:40:05.995Z,85.47
2022-12-17T17:42:36.409Z,85.70
2022-12-17T17:45:04.725Z,84.77
2022-12-17T17:47:33.465Z,87.77
2022-12-17T17:50:03.831Z,79.43
2022-12-17T17:52:32.436Z,90.03
2022-12-17T17:55:00.750Z,98.17
2022-12-17T17:57:29.183Z,96.70
2022-12-17T17:59:58.928Z,95.83
2022-12-17T18:02:27.100Z,97.37
2022-12-17T18:04:55.519Z,115.93
2022-12-17T18:07:26.144Z,108.53
2022-12-17T18:09:55.409Z,114.10
2022-12-17T18:12:49.749Z,114.47
2022-12-17T18:15:19.602Z,111.20
2022-12-17T18:17:51.549Z,92.17
2022-12-17T18:20:20.147Z,81.27
2022-12-17T18:22:48.391Z,71.83
2022-12-17T18:25:17.832Z,87.87
2022-12-17T18:27:46.310Z,91.13
2022-12-17T18:30:16.497Z,152.93
2022-12-17T18:32:46.434Z,75.73
2022-12-17T18:35:14.503Z,96.67
2022-12-17T18:37:42.880Z,124.63
2022-12-17T18:40:11.805Z,154.13
2022-12-17T18:42:57.284Z,134.87
2022-12-17T18:45:25.400Z,131.43
2022-12-17T18:47:54.985Z,127.50
2022-12-17T18:50:23.143Z,123.33
2022-12-17T18:52:51.409Z,118.93
2022-12-17T18:55:19.745Z,110.87
2022-12-17T18:57:47.890Z,118.47
2022-12-17T19:00:17.218Z,121.43
2022-12-17T19:02:45.700Z,129.57
2022-12-17T19:05:15.832Z,108.10
2022-12-17T19:07:44.028Z,107.07
2022-12-17T19:10:12.293Z,114.53
2022-12-17T19:12:40.585Z,120.80
2022-12-17T19:15:09.904Z,128.57
2022-12-17T19:17:37.881Z,122.50
2022-12-17T19:20:06.777Z,125.57
2022-12-17T19:22:36.316Z,121.50
2022-12-17T19:25:04.715Z,123.27
2022-12-17T19:27:32.944Z,119.43
2022-12-17T19:30:01.501Z,112.17
2022-12-17T19:32:29.776Z,118.23
2022-12-17T19:34:59.432Z,122.50
2022-12-17T19:37:27.698Z,123.27
2022-12-17T19:39:57.232Z,123.00
2022-12-17T19:42:35.157Z,135.70
2022-12-17T19:45:05.474Z,129.53
2022-12-17T19:47:33.702Z,134.90
2022-12-17T19:50:01.763Z,125.53
2022-12-17T19:52:31.207Z,114.77
2022-12-17T19:55:00.812Z,109.27
2022-12-17T19:57:29.001Z,122.73
2022-12-17T19:59:57.103Z,124.00
2022-12-17T20:02:31.019Z,129.20
2022-12-17T20:05:00.929Z,118.13
2022-12-17T20:07:29.066Z,101.67
2022-12-17T20:09:57.175Z,111.10
2022-12-17T20:12:26.815Z,108.00
2022-12-17T20:14:55.348Z,114.00
2022-12-17T20:17:24.900Z,131.00
2022-12-17T20:19:53.931Z,142.57
2022-12-17T20:22:23.509Z,103.50
2022-12-17T20:24:53.184Z,103.30
2022-12-17T20:27:21.275Z,106.80
2022-12-17T20:29:50.818Z,109.17
2022-12-17T20:32:21.355Z,95.83
2022-12-17T20:34:49.558Z,117.60
2022-12-17T20:37:17.763Z,104.07
2022-12-17T20:39:45.774Z,99.07
2022-12-17T20:42:13.956Z,99.40
2022-12-17T20:44:42.926Z,91.47
2022-12-17T20:47:12.422Z,90.90
2022-12-17T20:49:40.970Z,86.87
2022-12-17T20:52:09.258Z,108.97
2022-12-17T20:54:37.369Z,72.67
2022-12-17T20:57:05.732Z,66.03
2022-12-17T20:59:33.817Z,77.90
2022-12-17T21:02:01.979Z,83.73
2022-12-17T21:04:31.792Z,119.37
2022-12-17T21:07:00.102Z,103.50
2022-12-17T21:09:29.404Z,124.97
2022-12-17T21:11:57.608Z,95.90
2022-12-17T21:14:29.175Z,100.97
2022-12-17T21:17:00.345Z,126.60
2022-12-17T21:19:28.525Z,123.60
2022-12-17T21:21:58.255Z,123.10
2022-12-17T21:24:26.393Z,113.10
2022-12-17T21:26:57.442Z,141.77
2022-12-17T21:29:25.967Z,99.07
2022-12-17T21:31:54.210Z,90.97
2022-12-17T21:34:25.239Z,84.60
2022-12-17T21:36:53.778Z,98.67
2022-12-17T21:39:23.227Z,107.37
2022-12-17T21:42:05.170Z,90.37
2022-12-17T21:44:33.365Z,104.73
2022-12-17T21:47:02.241Z,118.70
2022-12-17T21:49:30.664Z,179.63
2022-12-17T21:52:00.476Z,107.93
2022-12-17T21:54:30.577Z,107.07
2022-12-17T21:56:58.630Z,113.77
2022-12-17T21:59:26.708Z,110.00
2022-12-17T22:01:57.447Z,93.00
2022-12-17T22:04:26.840Z,91.30
2022-12-17T22:07:05.582Z,98.00
2022-12-17T22:09:52.839Z,88.67
2022-12-17T22:12:48.764Z,79.77
2022-12-17T22:15:17.020Z,77.60
2022-12-17T22:17:47.162Z,78.73
2022-12-17T22:20:16.294Z,74.33
2022-12-17T22:22:45.512Z,84.70
2022-12-17T22:25:15.275Z,90.37
2022-12-17T22:27:43.994Z,121.80
2022-12-17T22:30:33.662Z,95.43
2022-12-17T22:33:09.410Z,86.27
2022-12-17T22:37:37.663Z,81.17
2022-12-17T22:44:12.735Z,82.40
2022-12-17T22:44:36.241Z,75.73
2022-12-17T22:44:51.257Z,65.87
2022-12-17T22:47:20.954Z,61.70
2022-12-17T22:49:48.971Z,66.13
2022-12-17T22:52:19.788Z,58.87
2022-12-17T22:54:48.552Z,65.17
2022-12-17T22:57:37.661Z,70.43
2022-12-17T23:00:15.978Z,78.03
2022-12-17T23:02:44.288Z,72.30
2022-12-17T23:05:12.408Z,61.90
2022-12-17T23:07:40.624Z,63.83
2022-12-17T23:10:09.319Z,58.77
2022-12-17T23:12:54.405Z,83.43
2022-12-17T23:15:26.649Z,71.63
2022-12-17T23:17:56.942Z,74.83
2022-12-17T23:20:26.115Z,72.20
2022-12-17T23:22:54.342Z,79.40
2022-12-17T23:25:22.600Z,74.37
2022-12-17T23:27:52.414Z,65.07
2022-12-17T23:30:20.971Z,79.43
2022-12-17T23:32:49.165Z,73.80
2022-12-17T23:35:17.240Z,80.53
2022-12-17T23:37:45.259Z,84.83
2022-12-17T23:40:14.555Z,85.50
2022-12-17T23:42:43.117Z,88.07
2022-12-17T23:45:12.599Z,86.40
2022-12-17T23:47:41.142Z,84.97
2022-12-17T23:50:11.566Z,82.47
2022-12-17T23:52:40.568Z,84.23
2022-12-17T23:55:09.152Z,92.43
2022-12-17T23:57:37.203Z,81.10
